createdAt,value
2017-09-28T00:00:23.187Z,213.57
2017-09-28T00:01:25.754Z,189.32
2017-09-28T00:02:28.514Z,235.25
2017-09-28T00:03:31.776Z,212.52
2017-09-28T00:04:34.459Z,208.30
2017-09-28T00:05:37.766Z,217.82
2017-09-28T00:06:41.321Z,241.90
2017-09-28T00:07:44.602Z,251.57
2017-09-28T00:08:47.991Z,254.93
2017-09-28T00:09:50.491Z,282.40
2017-09-28T00:10:53.019Z,277.27
2017-09-28T00:24:36.736Z,172.30
2017-09-28T00:25:39.281Z,225.60
2017-09-28T00:26:43.131Z,222.10
2017-09-28T00:27:45.799Z,205.43
2017-09-28T00:28:48.420Z,233.40
2017-09-28T00:29:50.934Z,236.37
2017-09-28T00:30:53.480Z,246.77
2017-09-28T00:31:56.784Z,272.77
2017-09-28T00:33:00.705Z,270.85
2017-09-28T00:34:03.351Z,244.68
2017-09-28T00:35:06.792Z,258.25
2017-09-28T00:36:10.238Z,260.48
2017-09-28T00:37:12.876Z,266.92
2017-09-28T00:38:15.882Z,239.50
2017-09-28T00:39:18.489Z,249.85
2017-09-28T00:40:21.108Z,269.00
2017-09-28T00:41:24.602Z,289.23
2017-09-28T00:42:27.271Z,282.08
2017-09-28T00:43:29.812Z,280.70
2017-09-28T00:44:33.116Z,242.95
2017-09-28T00:45:35.786Z,253.68
2017-09-28T00:46:39.600Z,241.15
2017-09-28T00:47:42.380Z,223.45
2017-09-28T00:48:44.922Z,242.90
2017-09-28T00:49:47.690Z,242.50
2017-09-28T00:50:50.257Z,211.15
2017-09-28T00:51:52.985Z,249.93
2017-09-28T00:52:55.548Z,205.32
2017-09-28T00:53:58.324Z,222.98
2017-09-28T00:55:00.882Z,247.35
2017-09-28T00:56:03.843Z,220.73
2017-09-28T00:57:06.334Z,248.57
2017-09-28T00:58:08.993Z,249.40
2017-09-28T00:59:11.511Z,272.00
2017-09-28T01:00:14.801Z,257.73
2017-09-28T01:01:17.364Z,252.02
2017-09-28T01:02:20.028Z,231.52
2017-09-28T01:03:22.548Z,202.75
2017-09-28T01:04:25.327Z,211.82
2017-09-28T01:05:27.848Z,239.18
2017-09-28T01:06:30.510Z,222.43
2017-09-28T01:07:32.994Z,219.52
2017-09-28T01:08:35.851Z,227.45
2017-09-28T01:09:38.380Z,215.98
2017-09-28T01:10:41.690Z,222.23
2017-09-28T01:11:44.310Z,212.93
2017-09-28T01:12:46.970Z,232.75
2017-09-28T01:13:49.454Z,210.60
2017-09-28T01:14:52.043Z,197.50
2017-09-28T01:15:54.546Z,216.27
2017-09-28T01:16:58.839Z,189.60
2017-09-28T01:18:01.346Z,209.93
2017-09-28T01:19:03.913Z,207.60
2017-09-28T01:20:06.430Z,248.60
2017-09-28T01:21:09.001Z,238.95
2017-09-28T01:22:11.478Z,263.95
2017-09-28T01:23:13.983Z,250.80
2017-09-28T01:24:16.465Z,257.37
2017-09-28T01:25:19.973Z,252.25
2017-09-28T01:26:23.812Z,268.52
2017-09-28T01:27:27.101Z,297.35
2017-09-28T01:28:29.634Z,282.08
2017-09-28T01:29:32.295Z,246.60
2017-09-28T01:30:34.849Z,249.30
2017-09-28T01:31:38.131Z,221.65
2017-09-28T01:32:41.443Z,218.25
2017-09-28T01:33:44.029Z,243.10
2017-09-28T01:34:46.518Z,232.55
2017-09-28T01:35:49.098Z,258.10
2017-09-28T01:36:51.698Z,239.35
2017-09-28T01:37:54.421Z,274.62
2017-09-28T01:38:56.908Z,270.67
2017-09-28T01:40:00.425Z,277.15
2017-09-28T01:41:02.917Z,260.25
2017-09-28T01:42:05.441Z,246.77
2017-09-28T01:43:07.948Z,228.45
2017-09-28T01:44:10.433Z,233.43
2017-09-28T01:45:12.955Z,218.30
2017-09-28T01:46:15.502Z,204.85
2017-09-28T01:47:18.796Z,242.00
2017-09-28T01:48:21.441Z,271.33
2017-09-28T01:49:24.751Z,274.23
2017-09-28T01:50:27.388Z,240.15
2017-09-28T01:51:29.937Z,243.73
2017-09-28T01:52:32.738Z,267.10
2017-09-28T01:53:35.997Z,281.73
2017-09-28T01:54:38.917Z,242.35
2017-09-28T01:55:41.453Z,268.63
2017-09-28T01:56:45.054Z,252.38
2017-09-28T01:57:48.340Z,235.45
2017-09-28T01:58:52.664Z,259.55
2017-09-28T01:59:55.179Z,262.33
2017-09-28T02:00:57.900Z,238.62
2017-09-28T02:02:00.393Z,242.60
2017-09-28T02:03:03.588Z,244.37
2017-09-28T02:04:06.168Z,248.65
2017-09-28T02:05:08.783Z,239.30
2017-09-28T02:06:11.351Z,273.65
2017-09-28T02:07:14.088Z,249.85
2017-09-28T02:08:17.591Z,240.70
2017-09-28T02:09:21.297Z,249.95
2017-09-28T02:10:23.802Z,248.07
2017-09-28T02:11:27.500Z,247.15
2017-09-28T02:12:30.002Z,235.07
2017-09-28T02:13:32.528Z,249.48
2017-09-28T02:14:35.110Z,255.25
2017-09-28T02:15:38.803Z,228.80
2017-09-28T02:16:41.299Z,230.57
2017-09-28T02:17:43.871Z,227.27
2017-09-28T02:18:47.128Z,223.38
2017-09-28T02:19:49.837Z,241.20
2017-09-28T02:20:52.338Z,232.57
2017-09-28T02:21:54.831Z,231.30
2017-09-28T02:22:57.327Z,217.65
2017-09-28T02:23:59.853Z,206.23
2017-09-28T02:25:02.331Z,188.80
2017-09-28T02:26:04.885Z,194.05
2017-09-28T02:27:07.503Z,204.60
2017-09-28T02:28:10.214Z,209.77
2017-09-28T02:29:12.696Z,186.43
2017-09-28T02:30:15.324Z,188.95
2017-09-28T02:31:17.849Z,188.50
2017-09-28T02:32:21.227Z,185.93
2017-09-28T02:33:24.649Z,184.85
2017-09-28T02:34:27.310Z,185.68
2017-09-28T02:35:29.980Z,185.23
2017-09-28T02:36:32.515Z,192.52
2017-09-28T02:37:35.841Z,178.05
2017-09-28T02:38:38.438Z,170.90
2017-09-28T02:39:40.920Z,163.65
2017-09-28T02:40:43.487Z,173.02
2017-09-28T02:41:45.969Z,178.77
2017-09-28T02:42:49.482Z,167.37
2017-09-28T02:43:51.981Z,184.52
2017-09-28T02:44:54.925Z,180.87
2017-09-28T02:45:57.407Z,190.15
2017-09-28T02:47:00.131Z,163.77
2017-09-28T02:48:03.389Z,163.43
2017-09-28T02:49:06.222Z,166.23
2017-09-28T02:50:08.706Z,164.05
2017-09-28T02:51:11.403Z,148.75
2017-09-28T02:52:14.673Z,143.10
2017-09-28T02:53:17.392Z,158.77
2017-09-28T02:54:20.646Z,163.37
2017-09-28T02:55:23.359Z,154.15
2017-09-28T02:56:25.932Z,156.93
2017-09-28T02:57:29.258Z,175.57
2017-09-28T02:58:31.739Z,164.50
2017-09-28T02:59:34.307Z,180.50
2017-09-28T03:00:36.807Z,151.87
2017-09-28T03:01:40.544Z,170.68
2017-09-28T03:02:43.067Z,155.32
2017-09-28T03:03:45.585Z,159.37
2017-09-28T03:04:48.208Z,153.45
2017-09-28T03:05:50.900Z,154.77
2017-09-28T03:06:53.438Z,153.77
2017-09-28T03:07:56.882Z,179.52
2017-09-28T03:08:59.391Z,161.43
2017-09-28T03:10:01.969Z,171.05
2017-09-28T03:11:04.529Z,157.70
2017-09-28T03:12:07.363Z,162.30
2017-09-28T03:13:09.865Z,150.73
2017-09-28T03:14:13.519Z,162.37
2017-09-28T03:15:16.024Z,152.10
2017-09-28T03:16:18.592Z,146.20
2017-09-28T03:17:21.115Z,149.60
2017-09-28T03:18:23.617Z,153.43
2017-09-28T03:19:26.341Z,153.15
2017-09-28T03:20:28.916Z,140.60
2017-09-28T03:21:31.487Z,156.85
2017-09-28T03:22:34.355Z,147.10
2017-09-28T03:23:37.661Z,152.48
2017-09-28T03:24:41.363Z,171.77
2017-09-28T03:25:44.712Z,155.40
2017-09-28T03:26:47.410Z,159.07
2017-09-28T03:27:50.686Z,165.05
2017-09-28T03:28:53.941Z,138.65
2017-09-28T03:29:56.438Z,176.68
2017-09-28T03:30:59.146Z,155.60
2017-09-28T03:32:01.659Z,153.18
2017-09-28T03:33:04.319Z,148.38
2017-09-28T03:34:06.815Z,155.02
2017-09-28T03:35:11.206Z,159.48
2017-09-28T03:36:13.769Z,149.98
2017-09-28T03:37:17.484Z,161.07
2017-09-28T03:38:20.744Z,164.90
2017-09-28T03:39:23.394Z,150.60
2017-09-28T03:40:25.875Z,163.23
2017-09-28T03:41:28.446Z,161.15
2017-09-28T03:42:31.702Z,168.15
2017-09-28T03:43:34.377Z,165.20
2017-09-28T03:44:36.859Z,158.65
2017-09-28T03:45:39.426Z,144.40
2017-09-28T03:46:42.142Z,146.27
2017-09-28T03:47:44.779Z,155.68
2017-09-28T03:48:48.065Z,169.90
2017-09-28T03:49:50.765Z,160.65
2017-09-28T03:50:53.254Z,142.90
2017-09-28T03:51:55.806Z,146.13
2017-09-28T03:52:58.293Z,150.55
2017-09-28T03:54:00.934Z,149.07
2017-09-28T03:55:03.434Z,167.10
2017-09-28T03:56:06.120Z,155.35
2017-09-28T03:57:08.650Z,151.90
2017-09-28T03:58:11.139Z,154.70
2017-09-28T03:59:13.680Z,144.60
2017-09-28T04:00:16.199Z,144.25
2017-09-28T04:01:19.860Z,138.80
2017-09-28T04:02:22.509Z,149.85
2017-09-28T04:03:25.056Z,155.98
2017-09-28T04:04:27.937Z,143.98
2017-09-28T04:05:30.499Z,150.18
2017-09-28T04:06:33.109Z,146.93
2017-09-28T04:07:35.594Z,152.55
2017-09-28T04:08:38.202Z,148.85
2017-09-28T04:09:40.695Z,153.70
2017-09-28T04:10:43.287Z,137.12
2017-09-28T04:11:47.183Z,152.38
2017-09-28T04:12:49.914Z,134.87
2017-09-28T04:13:52.427Z,138.45
2017-09-28T04:14:55.136Z,143.02
2017-09-28T04:15:57.622Z,161.60
2017-09-28T04:17:00.168Z,152.25
2017-09-28T04:18:02.652Z,140.82
2017-09-28T04:19:05.178Z,139.55
2017-09-28T04:20:07.684Z,131.68
2017-09-28T04:21:10.170Z,140.98
2017-09-28T04:22:12.708Z,151.87
2017-09-28T04:23:16.257Z,150.57
2017-09-28T04:24:19.568Z,151.65
2017-09-28T04:25:24.218Z,154.20
2017-09-28T04:26:31.914Z,134.52
2017-09-28T04:27:34.472Z,131.30
2017-09-28T04:28:37.003Z,128.90
2017-09-28T04:29:39.571Z,148.90
2017-09-28T04:30:42.094Z,136.23
2017-09-28T04:31:44.623Z,131.07
2017-09-28T04:32:47.170Z,139.10
2017-09-28T04:33:49.904Z,132.70
2017-09-28T04:34:52.437Z,126.35
2017-09-28T04:35:54.986Z,140.62
2017-09-28T04:36:57.504Z,125.65
2017-09-28T04:38:01.554Z,116.80
2017-09-28T04:39:04.054Z,125.70
2017-09-28T04:40:06.577Z,129.50
2017-09-28T04:41:09.080Z,131.20
2017-09-28T04:42:11.638Z,129.77
2017-09-28T04:43:14.172Z,129.35
2017-09-28T04:44:16.971Z,124.05
2017-09-28T04:45:19.452Z,120.65
2017-09-28T04:46:22.074Z,127.28
2017-09-28T04:47:24.575Z,129.82
2017-09-28T04:48:27.416Z,133.12
2017-09-28T04:49:29.904Z,124.80
2017-09-28T04:50:32.699Z,122.10
2017-09-28T04:51:35.321Z,140.73
2017-09-28T04:52:38.051Z,133.95
2017-09-28T04:53:40.562Z,130.55
2017-09-28T04:54:43.755Z,125.43
2017-09-28T04:55:46.302Z,138.73
2017-09-28T04:56:53.683Z,121.53
2017-09-28T04:57:56.176Z,130.45
2017-09-28T04:58:58.944Z,133.20
2017-09-28T05:00:01.712Z,138.50
2017-09-28T05:01:04.331Z,126.90
2017-09-28T05:02:07.582Z,124.57
2017-09-28T05:03:10.266Z,133.95
2017-09-28T05:04:12.776Z,140.95
2017-09-28T05:05:15.623Z,130.07
2017-09-28T05:06:18.891Z,136.57
2017-09-28T05:07:21.607Z,132.73
2017-09-28T05:08:24.137Z,118.72
2017-09-28T05:09:26.983Z,130.20
2017-09-28T05:10:29.477Z,122.13
2017-09-28T05:11:32.284Z,122.47
2017-09-28T05:12:35.362Z,126.78
2017-09-28T05:13:38.208Z,115.12
2017-09-28T05:14:47.955Z,118.37
2017-09-28T05:15:52.451Z,133.07
2017-09-28T05:16:54.963Z,133.32
2017-09-28T05:17:57.878Z,134.00
2017-09-28T05:19:00.385Z,119.95
2017-09-28T05:20:03.120Z,121.68
2017-09-28T05:21:06.311Z,123.32
2017-09-28T05:22:09.064Z,127.62
2017-09-28T05:23:12.808Z,134.12
2017-09-28T05:24:17.628Z,128.75
2017-09-28T05:25:20.306Z,119.78
2017-09-28T05:26:23.287Z,119.32
2017-09-28T05:27:27.232Z,119.22
2017-09-28T05:28:30.029Z,126.68
2017-09-28T05:29:33.277Z,122.50
2017-09-28T05:30:35.962Z,114.78
2017-09-28T05:31:45.700Z,121.65
2017-09-28T05:32:49.394Z,101.93
2017-09-28T05:33:52.654Z,115.15
2017-09-28T05:34:55.556Z,112.90
2017-09-28T05:35:59.320Z,114.45
2017-09-28T05:37:02.095Z,109.75
2017-09-28T05:38:04.688Z,119.40
2017-09-28T05:39:08.098Z,106.35
2017-09-28T05:40:10.600Z,104.15
2017-09-28T05:41:13.405Z,108.28
2017-09-28T05:42:15.941Z,115.97
2017-09-28T05:43:18.808Z,115.35
2017-09-28T05:44:21.963Z,112.57
2017-09-28T05:45:24.712Z,118.78
2017-09-28T05:46:28.027Z,109.95
2017-09-28T05:47:30.819Z,97.37
2017-09-28T05:48:33.370Z,110.82
2017-09-28T05:49:36.686Z,100.80
2017-09-28T05:50:40.029Z,102.70
2017-09-28T05:51:42.915Z,108.93
2017-09-28T05:52:45.849Z,101.28
2017-09-28T05:53:48.519Z,104.43
2017-09-28T05:54:51.332Z,108.32
2017-09-28T05:55:54.200Z,108.75
2017-09-28T05:56:56.772Z,113.28
2017-09-28T05:57:59.544Z,103.97
2017-09-28T05:59:02.032Z,108.78
2017-09-28T06:00:05.064Z,109.35
2017-09-28T06:01:08.826Z,95.82
2017-09-28T06:02:11.400Z,95.35
2017-09-28T06:03:14.728Z,102.95
2017-09-28T06:04:17.608Z,114.50
2017-09-28T06:05:20.096Z,95.57
2017-09-28T06:06:22.921Z,107.65
2017-09-28T06:07:25.455Z,96.47
2017-09-28T06:08:27.994Z,93.87
2017-09-28T06:09:30.611Z,100.72
2017-09-28T06:10:33.999Z,98.90
2017-09-28T06:11:37.342Z,102.57
2017-09-28T06:12:41.042Z,103.62
2017-09-28T06:13:43.537Z,92.75
2017-09-28T06:14:46.969Z,96.85
2017-09-28T06:15:49.461Z,92.40
2017-09-28T06:16:52.057Z,102.60
2017-09-28T06:17:54.571Z,96.87
2017-09-28T06:18:57.094Z,92.57
2017-09-28T06:19:59.580Z,95.30
2017-09-28T06:21:03.020Z,94.72
2017-09-28T06:22:05.587Z,87.37
2017-09-28T06:23:08.124Z,90.22
2017-09-28T06:24:10.630Z,80.62
2017-09-28T06:25:13.251Z,86.45
2017-09-28T06:26:15.820Z,84.55
2017-09-28T06:27:18.436Z,88.37
2017-09-28T06:28:20.994Z,79.75
2017-09-28T06:29:23.665Z,85.97
2017-09-28T06:30:26.184Z,81.00
2017-09-28T06:31:28.906Z,90.82
2017-09-28T06:32:31.396Z,86.95
2017-09-28T06:33:34.809Z,72.95
2017-09-28T06:34:37.380Z,76.47
2017-09-28T06:35:40.080Z,89.72
2017-09-28T06:36:42.592Z,80.15
2017-09-28T06:37:46.043Z,83.35
2017-09-28T06:38:49.620Z,78.37
2017-09-28T06:39:52.362Z,83.28
2017-09-28T06:40:54.930Z,78.35
2017-09-28T06:41:57.700Z,71.80
2017-09-28T06:43:00.243Z,79.53
2017-09-28T06:44:03.620Z,77.65
2017-09-28T06:45:06.107Z,75.95
2017-09-28T06:46:09.933Z,73.45
2017-09-28T06:47:17.333Z,69.25
2017-09-28T06:48:19.913Z,81.63
2017-09-28T06:49:26.965Z,86.43
2017-09-28T06:50:29.456Z,82.72
2017-09-28T06:51:31.970Z,87.00
2017-09-28T06:52:34.492Z,82.30
2017-09-28T06:53:37.059Z,74.43
2017-09-28T06:54:39.597Z,76.93
2017-09-28T06:55:42.846Z,71.65
2017-09-28T06:56:45.719Z,87.85
2017-09-28T06:57:48.212Z,80.53
2017-09-28T06:58:50.912Z,72.75
2017-09-28T06:59:53.418Z,71.57
2017-09-28T07:00:56.348Z,77.00
2017-09-28T07:01:59.014Z,77.72
2017-09-28T07:03:02.963Z,74.55
2017-09-28T07:04:05.445Z,73.40
2017-09-28T07:05:09.101Z,68.82
2017-09-28T07:06:12.347Z,78.43
2017-09-28T07:07:17.178Z,75.37
2017-09-28T07:08:19.709Z,65.12
2017-09-28T07:09:22.404Z,76.18
2017-09-28T07:10:24.945Z,70.37
2017-09-28T07:11:27.514Z,67.97
2017-09-28T07:12:29.993Z,70.15
2017-09-28T07:13:32.509Z,74.80
2017-09-28T07:14:35.826Z,73.68
2017-09-28T07:15:38.541Z,67.70
2017-09-28T07:16:41.036Z,69.15
2017-09-28T07:17:44.073Z,63.55
2017-09-28T07:18:47.356Z,64.22
2017-09-28T07:19:52.083Z,65.22
2017-09-28T07:20:54.587Z,78.55
2017-09-28T07:21:57.976Z,77.10
2017-09-28T07:23:00.495Z,64.40
2017-09-28T07:24:05.054Z,71.75
2017-09-28T07:25:07.526Z,67.10
2017-09-28T07:26:10.153Z,65.28
2017-09-28T07:27:12.655Z,71.18
2017-09-28T07:28:15.469Z,71.28
2017-09-28T07:29:17.994Z,60.60
2017-09-28T07:30:20.970Z,62.00
2017-09-28T07:31:23.480Z,64.60
2017-09-28T07:32:26.179Z,67.50
2017-09-28T07:33:29.452Z,73.70
2017-09-28T07:34:32.599Z,68.35
2017-09-28T07:35:35.182Z,63.13
2017-09-28T07:36:37.801Z,67.80
2017-09-28T07:37:40.377Z,74.82
2017-09-28T07:38:43.114Z,71.07
2017-09-28T07:39:46.424Z,64.70
2017-09-28T07:40:49.254Z,56.05
2017-09-28T07:41:51.786Z,59.20
2017-09-28T07:42:55.615Z,67.57
2017-09-28T07:43:58.808Z,63.63
2017-09-28T07:45:01.593Z,61.95
2017-09-28T07:46:04.896Z,56.85
2017-09-28T07:47:08.453Z,58.08
2017-09-28T07:48:13.171Z,59.22
2017-09-28T07:49:16.519Z,55.10
2017-09-28T07:50:19.020Z,54.45
2017-09-28T07:51:22.622Z,54.70
2017-09-28T07:52:25.937Z,54.05
2017-09-28T07:53:28.781Z,56.35
2017-09-28T07:54:32.495Z,59.50
2017-09-28T07:55:35.328Z,55.38
2017-09-28T07:56:38.107Z,56.22
2017-09-28T07:57:41.563Z,50.65
2017-09-28T07:58:44.202Z,55.10
2017-09-28T07:59:47.048Z,60.90
2017-09-28T08:00:50.561Z,59.90
2017-09-28T08:01:53.742Z,51.10
2017-09-28T08:02:57.083Z,49.28
2017-09-28T08:04:00.678Z,54.10
2017-09-28T08:05:04.411Z,52.88
2017-09-28T08:06:07.296Z,55.12
2017-09-28T08:07:09.766Z,56.67
2017-09-28T08:08:12.600Z,54.55
2017-09-28T08:09:15.975Z,53.80
2017-09-28T08:10:20.072Z,55.53
2017-09-28T08:11:23.082Z,45.20
2017-09-28T08:12:25.744Z,53.20
2017-09-28T08:13:30.853Z,52.65
2017-09-28T08:14:35.864Z,52.17
2017-09-28T08:15:39.173Z,53.35
2017-09-28T08:16:45.146Z,50.55
2017-09-28T08:17:48.540Z,56.85
2017-09-28T08:18:52.141Z,50.55
2017-09-28T08:19:54.762Z,56.75
2017-09-28T08:20:58.287Z,56.45
2017-09-28T08:22:00.936Z,57.62
2017-09-28T08:23:04.564Z,50.40
2017-09-28T08:24:07.137Z,62.78
2017-09-28T08:25:09.998Z,52.83
2017-09-28T08:26:12.582Z,50.95
2017-09-28T08:27:15.439Z,59.55
2017-09-28T08:28:18.067Z,52.40
2017-09-28T08:29:22.683Z,54.65
2017-09-28T08:30:26.017Z,51.03
2017-09-28T08:31:29.080Z,57.13
2017-09-28T08:32:31.880Z,54.97
2017-09-28T08:33:34.533Z,48.63
2017-09-28T08:34:38.113Z,50.72
2017-09-28T08:35:42.140Z,52.65
2017-09-28T08:36:44.932Z,49.78
2017-09-28T08:37:47.514Z,46.47
2017-09-28T08:38:50.379Z,56.25
2017-09-28T08:39:53.219Z,52.67
2017-09-28T08:40:55.983Z,53.30
2017-09-28T08:41:58.587Z,48.67
2017-09-28T08:43:01.201Z,51.05
2017-09-28T08:44:03.886Z,49.65
2017-09-28T08:45:06.661Z,47.13
2017-09-28T08:46:09.439Z,50.28
2017-09-28T08:47:12.230Z,48.25
2017-09-28T08:48:14.986Z,46.78
2017-09-28T08:49:17.602Z,42.67
2017-09-28T08:50:20.237Z,51.08
2017-09-28T08:51:22.834Z,52.75
2017-09-28T08:52:26.170Z,47.38
2017-09-28T08:53:30.096Z,47.05
2017-09-28T08:54:33.460Z,48.60
2017-09-28T08:55:36.864Z,45.97
2017-09-28T08:56:40.061Z,43.53
2017-09-28T08:57:42.915Z,47.40
2017-09-28T08:58:46.160Z,48.70
2017-09-28T08:59:49.753Z,45.65
2017-09-28T09:00:53.488Z,45.70
2017-09-28T09:01:56.342Z,52.50
2017-09-28T09:02:59.082Z,45.53
2017-09-28T09:04:02.614Z,44.67
2017-09-28T09:05:05.367Z,49.10
2017-09-28T09:06:08.000Z,42.38
2017-09-28T09:07:11.233Z,43.78
2017-09-28T09:08:14.031Z,48.80
2017-09-28T09:09:16.870Z,44.55
2017-09-28T09:10:19.392Z,46.60
2017-09-28T09:11:22.182Z,51.40
2017-09-28T09:12:24.694Z,47.90
2017-09-28T09:13:27.516Z,48.05
2017-09-28T09:14:30.739Z,47.33
2017-09-28T09:15:33.526Z,42.35
2017-09-28T09:16:36.249Z,42.25
2017-09-28T09:17:39.535Z,46.17
2017-09-28T09:18:43.636Z,40.47
2017-09-28T09:19:46.907Z,41.33
2017-09-28T09:20:49.675Z,40.30
2017-09-28T09:21:52.292Z,43.15
2017-09-28T09:22:55.067Z,43.17
2017-09-28T09:23:57.564Z,47.80
2017-09-28T09:25:00.255Z,41.10
2017-09-28T09:26:02.936Z,44.80
2017-09-28T09:27:06.124Z,42.72
2017-09-28T09:28:09.741Z,38.65
2017-09-28T09:29:12.481Z,42.00
2017-09-28T09:30:14.960Z,44.15
2017-09-28T09:31:18.430Z,48.87
2017-09-28T09:32:21.263Z,41.22
2017-09-28T09:33:23.977Z,43.25
2017-09-28T09:34:28.437Z,40.55
2017-09-28T09:35:31.453Z,46.90
2017-09-28T09:36:34.081Z,44.00
2017-09-28T09:37:36.651Z,40.97
2017-09-28T09:38:39.403Z,35.50
2017-09-28T09:39:42.519Z,41.13
2017-09-28T09:40:45.066Z,38.42
2017-09-28T09:41:47.602Z,43.83
2017-09-28T09:42:50.902Z,38.30
2017-09-28T09:43:53.884Z,35.67
2017-09-28T09:44:56.422Z,43.97
2017-09-28T09:45:59.831Z,40.75
2017-09-28T09:47:02.324Z,50.28
2017-09-28T09:48:05.071Z,43.67
2017-09-28T09:49:07.852Z,41.13
2017-09-28T09:50:10.487Z,43.80
2017-09-28T09:51:13.791Z,41.60
2017-09-28T09:52:16.435Z,43.28
2017-09-28T09:53:20.280Z,38.85
2017-09-28T09:54:22.996Z,38.25
2017-09-28T09:55:26.322Z,42.50
2017-09-28T09:56:29.086Z,43.40
2017-09-28T09:57:31.963Z,40.42
2017-09-28T09:58:34.665Z,44.00
2017-09-28T09:59:37.182Z,43.15
2017-09-28T10:00:40.596Z,44.80
2017-09-28T10:01:43.132Z,42.50
2017-09-28T10:02:46.430Z,42.08
2017-09-28T10:03:49.015Z,44.33
2017-09-28T10:04:51.958Z,41.97
2017-09-28T10:05:55.236Z,44.20
2017-09-28T10:07:03.841Z,52.10
2017-09-28T10:08:18.002Z,42.85
2017-09-28T10:09:22.707Z,42.20
2017-09-28T10:10:31.798Z,42.13
2017-09-28T10:11:37.535Z,40.65
2017-09-28T10:12:47.428Z,41.97
2017-09-28T10:13:52.516Z,45.83
2017-09-28T10:14:59.571Z,39.92
2017-09-28T10:16:06.639Z,44.95
2017-09-28T10:17:09.207Z,43.25
2017-09-28T10:18:13.471Z,41.58
2017-09-28T10:19:16.953Z,42.00
2017-09-28T10:20:19.734Z,45.97
2017-09-28T10:21:22.599Z,44.05
2017-09-28T10:22:25.562Z,50.88
2017-09-28T10:23:29.520Z,43.87
2017-09-28T10:24:32.290Z,46.13
2017-09-28T10:25:34.805Z,41.03
2017-09-28T10:26:37.484Z,43.08
2017-09-28T10:27:40.257Z,38.08
2017-09-28T10:28:43.146Z,40.97
2017-09-28T10:29:45.724Z,41.47
2017-09-28T10:30:48.478Z,47.08
2017-09-28T10:31:51.965Z,44.67
2017-09-28T10:32:55.372Z,40.08
2017-09-28T10:33:57.892Z,39.10
2017-09-28T10:35:01.286Z,42.55
2017-09-28T10:36:04.189Z,38.20
2017-09-28T10:37:07.576Z,47.75
2017-09-28T10:38:11.086Z,45.20
2017-09-28T10:39:13.991Z,42.60
2017-09-28T10:40:17.403Z,42.90
2017-09-28T10:41:20.380Z,38.03
2017-09-28T10:42:23.365Z,44.88
2017-09-28T10:43:26.224Z,42.60
2017-09-28T10:44:29.320Z,38.58
2017-09-28T10:45:32.659Z,42.30
2017-09-28T10:46:36.565Z,43.13
2017-09-28T10:47:42.076Z,44.60
2017-09-28T10:48:44.703Z,43.63
2017-09-28T10:49:47.266Z,39.28
2017-09-28T10:50:50.654Z,41.63
2017-09-28T10:51:53.610Z,38.25
2017-09-28T10:52:57.651Z,35.80
2017-09-28T10:54:00.733Z,35.92
2017-09-28T10:55:03.938Z,38.70
2017-09-28T10:56:07.386Z,42.13
2017-09-28T10:57:10.128Z,39.63
2017-09-28T10:58:14.401Z,42.88
2017-09-28T10:59:18.096Z,40.75
2017-09-28T11:00:21.361Z,40.17
2017-09-28T11:01:26.124Z,41.17
2017-09-28T11:02:29.039Z,44.10
2017-09-28T11:03:31.757Z,46.75
2017-09-28T11:04:37.461Z,39.17
2017-09-28T11:05:40.425Z,46.40
2017-09-28T11:06:47.055Z,39.55
2017-09-28T11:07:50.485Z,43.22
2017-09-28T11:08:53.575Z,42.22
2017-09-28T11:09:56.421Z,38.97
2017-09-28T11:10:59.239Z,39.60
2017-09-28T11:12:01.763Z,35.83
2017-09-28T11:13:04.432Z,45.17
2017-09-28T11:14:07.443Z,42.83
2017-09-28T11:15:10.396Z,40.05
2017-09-28T11:16:13.160Z,40.00
2017-09-28T11:17:15.670Z,38.28
2017-09-28T11:18:18.192Z,40.63
2017-09-28T11:19:21.177Z,35.95
2017-09-28T11:20:23.733Z,38.67
2017-09-28T11:21:26.400Z,38.00
2017-09-28T11:22:29.039Z,38.10
2017-09-28T11:23:32.461Z,42.38
2017-09-28T11:24:35.099Z,40.88
2017-09-28T11:25:38.417Z,42.42
2017-09-28T11:26:41.062Z,48.58
2017-09-28T11:27:43.662Z,41.90
2017-09-28T11:28:46.346Z,38.85
2017-09-28T11:29:49.810Z,42.75
2017-09-28T11:30:52.545Z,39.78
2017-09-28T11:31:56.487Z,61.17
2017-09-28T11:32:59.577Z,42.60
2017-09-28T11:34:02.213Z,41.75
2017-09-28T11:35:04.758Z,37.50
2017-09-28T11:36:08.053Z,40.03
2017-09-28T11:37:10.788Z,42.28
2017-09-28T11:38:13.449Z,40.78
2017-09-28T11:39:16.081Z,46.00
2017-09-28T11:40:19.225Z,39.30
2017-09-28T11:41:22.758Z,44.63
2017-09-28T11:42:25.357Z,39.00
2017-09-28T11:43:27.985Z,36.35
2017-09-28T11:44:30.619Z,43.70
2017-09-28T11:45:33.597Z,37.45
2017-09-28T11:46:37.068Z,42.25
2017-09-28T11:47:40.592Z,39.17
2017-09-28T11:48:43.133Z,37.37
2017-09-28T11:49:45.802Z,42.20
2017-09-28T11:50:48.386Z,43.30
2017-09-28T11:51:51.777Z,46.57
2017-09-28T11:52:55.908Z,36.87
2017-09-28T11:53:58.670Z,36.03
2017-09-28T11:55:01.248Z,37.40
2017-09-28T11:56:04.021Z,40.80
2017-09-28T11:57:06.592Z,46.90
2017-09-28T11:58:09.371Z,43.05
2017-09-28T11:59:11.909Z,40.03
2017-09-28T12:00:16.931Z,39.90
2017-09-28T12:01:19.623Z,40.40
2017-09-28T12:02:22.323Z,38.10
2017-09-28T12:03:24.960Z,35.77
2017-09-28T12:04:27.711Z,38.30
2017-09-28T12:05:30.342Z,37.25
2017-09-28T12:06:32.905Z,44.30
2017-09-28T12:07:35.529Z,36.77
2017-09-28T12:08:38.169Z,37.70
2017-09-28T12:09:41.495Z,40.27
2017-09-28T12:10:46.159Z,42.42
2017-09-28T12:11:49.651Z,35.93
2017-09-28T12:12:53.151Z,36.07
2017-09-28T12:13:56.577Z,33.10
2017-09-28T12:14:59.325Z,37.60
2017-09-28T12:16:02.633Z,34.03
2017-09-28T12:17:06.554Z,37.43
2017-09-28T12:18:09.197Z,42.60
2017-09-28T12:19:12.407Z,36.87
2017-09-28T12:20:14.951Z,37.27
2017-09-28T12:21:18.158Z,34.90
2017-09-28T12:22:20.785Z,42.17
2017-09-28T12:23:23.568Z,31.63
2017-09-28T12:24:26.229Z,39.20
2017-09-28T12:25:28.903Z,37.13
2017-09-28T12:26:31.593Z,39.70
2017-09-28T12:27:34.458Z,37.53
2017-09-28T12:28:37.012Z,36.80
2017-09-28T12:29:39.623Z,38.50
2017-09-28T12:30:42.213Z,39.93
2017-09-28T12:31:45.541Z,38.70
2017-09-28T12:32:48.202Z,38.23
2017-09-28T12:33:50.834Z,42.30
2017-09-28T12:34:54.354Z,39.87
2017-09-28T12:35:57.098Z,34.22
2017-09-28T12:37:00.676Z,37.70
2017-09-28T12:38:03.657Z,39.00
2017-09-28T12:39:07.060Z,37.70
2017-09-28T12:40:10.567Z,35.53
2017-09-28T12:41:13.078Z,38.00
2017-09-28T12:42:15.585Z,42.67
2017-09-28T12:43:18.293Z,39.60
2017-09-28T12:44:21.004Z,34.30
2017-09-28T12:45:24.326Z,34.40
2017-09-28T12:46:26.926Z,44.47
2017-09-28T12:47:29.580Z,34.90
2017-09-28T12:48:32.343Z,33.50
2017-09-28T12:49:34.912Z,36.50
2017-09-28T12:50:37.710Z,34.57
2017-09-28T12:51:40.379Z,34.23
2017-09-28T12:52:43.014Z,41.80
2017-09-28T12:53:45.584Z,41.07
2017-09-28T12:54:48.254Z,42.97
2017-09-28T12:55:51.737Z,38.78
2017-09-28T12:56:54.491Z,39.70
2017-09-28T12:57:57.296Z,41.70
2017-09-28T12:59:01.056Z,38.25
2017-09-28T13:00:04.341Z,38.58
2017-09-28T13:01:07.751Z,39.22
2017-09-28T13:02:10.359Z,39.83
2017-09-28T13:03:13.141Z,44.33
2017-09-28T13:04:16.571Z,37.80
2017-09-28T13:05:19.567Z,37.05
2017-09-28T13:06:22.115Z,35.88
2017-09-28T13:07:24.882Z,42.00
2017-09-28T13:08:27.676Z,37.10
2017-09-28T13:09:30.220Z,34.97
2017-09-28T13:10:32.745Z,41.40
2017-09-28T13:11:36.561Z,40.27
2017-09-28T13:12:39.468Z,34.13
2017-09-28T13:13:42.344Z,41.80
2017-09-28T13:14:45.453Z,41.37
2017-09-28T13:15:48.144Z,38.65
2017-09-28T13:16:52.103Z,47.25
2017-09-28T13:17:56.719Z,43.17
2017-09-28T13:19:02.591Z,43.63
2017-09-28T13:20:05.770Z,43.33
2017-09-28T13:21:11.959Z,45.10
2017-09-28T13:22:15.938Z,52.70
2017-09-28T13:23:18.565Z,50.40
2017-09-28T13:24:21.741Z,46.28
2017-09-28T13:25:24.276Z,44.95
2017-09-28T13:26:27.783Z,50.08
2017-09-28T13:27:31.188Z,48.40
2017-09-28T13:28:34.011Z,46.85
2017-09-28T13:29:36.554Z,44.33
2017-09-28T13:30:39.358Z,50.10
2017-09-28T13:31:42.638Z,49.00
2017-09-28T13:32:46.214Z,50.85